AMX243 MMMX-MMGL
Flight info
| Callsign | AMX243 |
|---|---|
| Flight time | 0h 47m |
| Altitude | 32000 |
| Route | OVAGO UT123 IGSON |
| Aircraft | B38M/M-SDE1FGHILORVWXY/HB1 |
Departure
| Time | 2026-05-08 02:00 |
|---|---|
| Airport | Mexico City Benito Juárez International Airport (MMMX) |
Arrival
| Time | 2026-05-08 02:47 |
|---|---|
| Airport | Guadalajara International Airport (MMGL) |
| Time | Latitude | Longitude | Altitude | Speed | Heading |
|---|---|---|---|---|---|
| 2026-05-08 01:27 | 19.42192 | -99.08055 | 7305 ft | 0 kts | 29° |
| 2026-05-08 01:42 | 19.42184 | -99.08059 | 7305 ft | 2 kts | 29° |
| 2026-05-08 01:42 | 19.42175 | -99.08065 | 7305 ft | 2 kts | 29° |
| 2026-05-08 01:42 | 19.42165 | -99.08071 | 7305 ft | 2 kts | 30° |
| 2026-05-08 01:43 | 19.42154 | -99.08074 | 7305 ft | 2 kts | 353° |
| 2026-05-08 01:43 | 19.42141 | -99.08069 | 7305 ft | 2 kts | 306° |
| 2026-05-08 01:43 | 19.42134 | -99.08056 | 7305 ft | 2 kts | 301° |
| 2026-05-08 01:43 | 19.42126 | -99.08043 | 7305 ft | 0 kts | 301° |
| 2026-05-08 01:52 | 19.42126 | -99.08044 | 7305 ft | 0 kts | 301° |
| 2026-05-08 01:53 | 19.42133 | -99.08056 | 7305 ft | 5 kts | 299° |
| 2026-05-08 01:53 | 19.42160 | -99.08107 | 7305 ft | 11 kts | 301° |
| 2026-05-08 01:53 | 19.42210 | -99.08191 | 7305 ft | 15 kts | 307° |
| 2026-05-08 01:53 | 19.42293 | -99.08203 | 7305 ft | 11 kts | 4° |
| 2026-05-08 01:54 | 19.42342 | -99.08200 | 7305 ft | 7 kts | 359° |
| 2026-05-08 01:54 | 19.42405 | -99.08217 | 7305 ft | 12 kts | 328° |
| 2026-05-08 01:54 | 19.42490 | -99.08270 | 7305 ft | 16 kts | 330° |
| 2026-05-08 01:54 | 19.42564 | -99.08337 | 7305 ft | 15 kts | 294° |
| 2026-05-08 01:55 | 19.42607 | -99.08442 | 7305 ft | 15 kts | 294° |
| 2026-05-08 01:55 | 19.42627 | -99.08488 | 7305 ft | 1 kts | 294° |
| 2026-05-08 01:55 | 19.42627 | -99.08489 | 7305 ft | 0 kts | 294° |
| 2026-05-08 01:57 | 19.42630 | -99.08497 | 7293 ft | 4 kts | 294° |
| 2026-05-08 01:57 | 19.42657 | -99.08564 | 7305 ft | 15 kts | 293° |
| 2026-05-08 01:57 | 19.42677 | -99.08698 | 7305 ft | 21 kts | 275° |
| 2026-05-08 01:58 | 19.42689 | -99.08860 | 7305 ft | 18 kts | 274° |
| 2026-05-08 01:58 | 19.42692 | -99.08927 | 7305 ft | 0 kts | 272° |
| 2026-05-08 01:59 | 19.42692 | -99.08928 | 7305 ft | 1 kts | 272° |
| 2026-05-08 01:59 | 19.42694 | -99.08962 | 7305 ft | 9 kts | 272° |
| 2026-05-08 01:59 | 19.42719 | -99.09055 | 7305 ft | 16 kts | 328° |
| 2026-05-08 01:59 | 19.42787 | -99.08998 | 7305 ft | 18 kts | 58° |
| 2026-05-08 02:00 | 19.42962 | -99.08689 | 7304 ft | 82 kts | 59° |
| 2026-05-08 02:00 | 19.43361 | -99.07979 | 7307 ft | 141 kts | 59° |
| 2026-05-08 02:00 | 19.43937 | -99.06928 | 7394 ft | 180 kts | 57° |
| 2026-05-08 02:00 | 19.44578 | -99.05770 | 7969 ft | 193 kts | 56° |
| 2026-05-08 02:01 | 19.45277 | -99.04538 | 8918 ft | 199 kts | 57° |
| 2026-05-08 02:01 | 19.46016 | -99.03237 | 9362 ft | 218 kts | 57° |
| 2026-05-08 02:01 | 19.46863 | -99.01778 | 9566 ft | 241 kts | 59° |
| 2026-05-08 02:01 | 19.47759 | -99.00189 | 9978 ft | 258 kts | 60° |
| 2026-05-08 02:02 | 19.48675 | -98.98534 | 10709 ft | 266 kts | 60° |
| 2026-05-08 02:02 | 19.49572 | -98.96771 | 11270 ft | 278 kts | 71° |
| 2026-05-08 02:02 | 19.49834 | -98.94759 | 11955 ft | 277 kts | 102° |
| 2026-05-08 02:02 | 19.49120 | -98.92897 | 12654 ft | 275 kts | 131° |
| 2026-05-08 02:03 | 19.47662 | -98.91601 | 13306 ft | 276 kts | 157° |
| 2026-05-08 02:03 | 19.45825 | -98.91125 | 14133 ft | 272 kts | 182° |
| 2026-05-08 02:03 | 19.44000 | -98.91585 | 14825 ft | 274 kts | 208° |
| 2026-05-08 02:03 | 19.42552 | -98.92887 | 15518 ft | 279 kts | 233° |
| 2026-05-08 02:04 | 19.41693 | -98.94761 | 16140 ft | 287 kts | 246° |
| 2026-05-08 02:04 | 19.40910 | -98.96721 | 16820 ft | 290 kts | 244° |
| 2026-05-08 02:04 | 19.40117 | -98.98667 | 17532 ft | 293 kts | 244° |
| 2026-05-08 02:04 | 19.39308 | -99.00658 | 18187 ft | 297 kts | 245° |
| 2026-05-08 02:05 | 19.38486 | -99.02687 | 18779 ft | 302 kts | 245° |
| 2026-05-08 02:05 | 19.37656 | -99.04743 | 19304 ft | 306 kts | 244° |
| 2026-05-08 02:05 | 19.36976 | -99.06914 | 19688 ft | 320 kts | 257° |
| 2026-05-08 02:05 | 19.36649 | -99.09299 | 19919 ft | 335 kts | 258° |
| 2026-05-08 02:06 | 19.36289 | -99.11763 | 20331 ft | 342 kts | 259° |
| 2026-05-08 02:06 | 19.35923 | -99.14262 | 20883 ft | 344 kts | 258° |
| 2026-05-08 02:06 | 19.35555 | -99.16779 | 21427 ft | 347 kts | 258° |
| 2026-05-08 02:06 | 19.35183 | -99.19314 | 21950 ft | 350 kts | 258° |
| 2026-05-08 02:07 | 19.34808 | -99.21872 | 22473 ft | 352 kts | 258° |
| 2026-05-08 02:07 | 19.34430 | -99.24443 | 22990 ft | 355 kts | 258° |
| 2026-05-08 02:07 | 19.34049 | -99.27037 | 23484 ft | 358 kts | 258° |
| 2026-05-08 02:07 | 19.33665 | -99.29647 | 23914 ft | 361 kts | 258° |
| 2026-05-08 02:08 | 19.33280 | -99.32262 | 24078 ft | 364 kts | 258° |
| 2026-05-08 02:08 | 19.32891 | -99.34904 | 24095 ft | 363 kts | 258° |
| 2026-05-08 02:08 | 19.32500 | -99.37557 | 24492 ft | 364 kts | 258° |
| 2026-05-08 02:08 | 19.32040 | -99.40207 | 24803 ft | 372 kts | 255° |
| 2026-05-08 02:09 | 19.31500 | -99.42947 | 24868 ft | 387 kts | 255° |
| 2026-05-08 02:09 | 19.30954 | -99.45776 | 25121 ft | 394 kts | 256° |
| 2026-05-08 02:09 | 19.30407 | -99.48621 | 25616 ft | 394 kts | 255° |
| 2026-05-08 02:09 | 19.29860 | -99.51477 | 26044 ft | 396 kts | 255° |
| 2026-05-08 02:10 | 19.29311 | -99.54343 | 26410 ft | 399 kts | 255° |
| 2026-05-08 02:10 | 19.28756 | -99.57238 | 26777 ft | 402 kts | 255° |
| 2026-05-08 02:10 | 19.28200 | -99.60134 | 27150 ft | 404 kts | 256° |
| 2026-05-08 02:10 | 19.27645 | -99.63021 | 27507 ft | 407 kts | 256° |
| 2026-05-08 02:11 | 19.27080 | -99.65963 | 27834 ft | 409 kts | 256° |
| 2026-05-08 02:11 | 19.26510 | -99.68925 | 28155 ft | 412 kts | 256° |
| 2026-05-08 02:11 | 19.25936 | -99.71901 | 28456 ft | 414 kts | 256° |
| 2026-05-08 02:11 | 19.25357 | -99.74904 | 28751 ft | 417 kts | 256° |
| 2026-05-08 02:12 | 19.24775 | -99.77921 | 29041 ft | 420 kts | 256° |
| 2026-05-08 02:12 | 19.24204 | -99.80969 | 29308 ft | 422 kts | 257° |
| 2026-05-08 02:12 | 19.23652 | -99.84026 | 29600 ft | 424 kts | 257° |
| 2026-05-08 02:12 | 19.23100 | -99.87059 | 29887 ft | 426 kts | 257° |
| 2026-05-08 02:13 | 19.22538 | -99.90143 | 30193 ft | 427 kts | 257° |
| 2026-05-08 02:13 | 19.21973 | -99.93240 | 30421 ft | 429 kts | 257° |
| 2026-05-08 02:13 | 19.21406 | -99.96339 | 30733 ft | 430 kts | 257° |
| 2026-05-08 02:13 | 19.20835 | -99.99461 | 30970 ft | 431 kts | 257° |
| 2026-05-08 02:14 | 19.20265 | -100.02575 | 31305 ft | 431 kts | 257° |
| 2026-05-08 02:14 | 19.19694 | -100.05690 | 31685 ft | 430 kts | 257° |
| 2026-05-08 02:14 | 19.19124 | -100.08799 | 31887 ft | 430 kts | 257° |
| 2026-05-08 02:14 | 19.18609 | -100.11895 | 31889 ft | 428 kts | 263° |
| 2026-05-08 02:15 | 19.18755 | -100.15038 | 31833 ft | 431 kts | 279° |
| 2026-05-08 02:15 | 19.19606 | -100.18090 | 31848 ft | 434 kts | 284° |
| 2026-05-08 02:15 | 19.21467 | -100.24177 | 31849 ft | 434 kts | 285° |
| 2026-05-08 02:16 | 19.23378 | -100.30237 | 31778 ft | 434 kts | 285° |
| 2026-05-08 02:16 | 19.25288 | -100.36253 | 31819 ft | 434 kts | 285° |
| 2026-05-08 02:17 | 19.27208 | -100.42307 | 31821 ft | 434 kts | 285° |
| 2026-05-08 02:17 | 19.29128 | -100.48362 | 31770 ft | 434 kts | 285° |
| 2026-05-08 02:18 | 19.31046 | -100.54423 | 31784 ft | 434 kts | 285° |
| 2026-05-08 02:18 | 19.32962 | -100.60486 | 31743 ft | 432 kts | 285° |
| 2026-05-08 02:19 | 19.34867 | -100.66519 | 31744 ft | 432 kts | 285° |
| 2026-05-08 02:19 | 19.36803 | -100.72541 | 31766 ft | 432 kts | 287° |
| 2026-05-08 02:20 | 19.38864 | -100.78476 | 31759 ft | 432 kts | 287° |
| 2026-05-08 02:20 | 19.40927 | -100.84464 | 31774 ft | 432 kts | 287° |
| 2026-05-08 02:21 | 19.42980 | -100.90435 | 31787 ft | 432 kts | 287° |
| 2026-05-08 02:21 | 19.45032 | -100.96415 | 31788 ft | 432 kts | 287° |
| 2026-05-08 02:22 | 19.47084 | -101.02397 | 31839 ft | 431 kts | 287° |
| 2026-05-08 02:22 | 19.49131 | -101.08373 | 31835 ft | 431 kts | 287° |
| 2026-05-08 02:23 | 19.51159 | -101.14300 | 31830 ft | 430 kts | 287° |
| 2026-05-08 02:23 | 19.53199 | -101.20272 | 31827 ft | 430 kts | 287° |
| 2026-05-08 02:24 | 19.55239 | -101.26251 | 31836 ft | 430 kts | 287° |
| 2026-05-08 02:24 | 19.57272 | -101.32215 | 31871 ft | 430 kts | 286° |
| 2026-05-08 02:25 | 19.59281 | -101.38114 | 31871 ft | 428 kts | 286° |
| 2026-05-08 02:25 | 19.61302 | -101.44058 | 31868 ft | 428 kts | 286° |
| 2026-05-08 02:26 | 19.63320 | -101.49999 | 31897 ft | 428 kts | 286° |
| 2026-05-08 02:26 | 19.65338 | -101.55950 | 31886 ft | 428 kts | 286° |
| 2026-05-08 02:27 | 19.67352 | -101.61893 | 31915 ft | 428 kts | 286° |
| 2026-05-08 02:27 | 19.69363 | -101.67838 | 31890 ft | 428 kts | 286° |
| 2026-05-08 02:28 | 19.71356 | -101.73735 | 31898 ft | 427 kts | 286° |
| 2026-05-08 02:28 | 19.73360 | -101.79671 | 31899 ft | 427 kts | 286° |
| 2026-05-08 02:29 | 19.75331 | -101.85517 | 31695 ft | 417 kts | 286° |
| 2026-05-08 02:29 | 19.76308 | -101.88417 | 31464 ft | 426 kts | 286° |
| 2026-05-08 02:29 | 19.77304 | -101.91376 | 31219 ft | 428 kts | 286° |
| 2026-05-08 02:30 | 19.78310 | -101.94366 | 30758 ft | 429 kts | 286° |
| 2026-05-08 02:30 | 19.79310 | -101.97340 | 30188 ft | 426 kts | 285° |
| 2026-05-08 02:30 | 19.80305 | -102.00302 | 29476 ft | 426 kts | 285° |
| 2026-05-08 02:30 | 19.81307 | -102.03285 | 28752 ft | 428 kts | 285° |
| 2026-05-08 02:31 | 19.82307 | -102.06267 | 28061 ft | 429 kts | 286° |
| 2026-05-08 02:31 | 19.83314 | -102.09266 | 27358 ft | 431 kts | 286° |
| 2026-05-08 02:31 | 19.84322 | -102.12273 | 26677 ft | 432 kts | 286° |
| 2026-05-08 02:31 | 19.85332 | -102.15289 | 26005 ft | 434 kts | 286° |
| 2026-05-08 02:32 | 19.86344 | -102.18311 | 25351 ft | 435 kts | 286° |
| 2026-05-08 02:32 | 19.87345 | -102.21303 | 24720 ft | 436 kts | 286° |
| 2026-05-08 02:32 | 19.88362 | -102.24344 | 24088 ft | 437 kts | 286° |
| 2026-05-08 02:32 | 19.89382 | -102.27392 | 23466 ft | 438 kts | 286° |
| 2026-05-08 02:33 | 19.90399 | -102.30436 | 23014 ft | 433 kts | 287° |
| 2026-05-08 02:33 | 19.91388 | -102.33398 | 22916 ft | 418 kts | 287° |
| 2026-05-08 02:33 | 19.92344 | -102.36258 | 22901 ft | 403 kts | 286° |
| 2026-05-08 02:33 | 19.93278 | -102.39057 | 22885 ft | 400 kts | 286° |
| 2026-05-08 02:34 | 19.94207 | -102.41842 | 22390 ft | 401 kts | 286° |
| 2026-05-08 02:34 | 19.95146 | -102.44658 | 21728 ft | 405 kts | 287° |
| 2026-05-08 02:34 | 19.96087 | -102.47482 | 21088 ft | 407 kts | 287° |
| 2026-05-08 02:34 | 19.97036 | -102.50334 | 20482 ft | 410 kts | 287° |
| 2026-05-08 02:35 | 19.97989 | -102.53200 | 19871 ft | 412 kts | 287° |
| 2026-05-08 02:35 | 19.98945 | -102.56078 | 19274 ft | 414 kts | 287° |
| 2026-05-08 02:35 | 19.99937 | -102.58923 | 18628 ft | 418 kts | 294° |
| 2026-05-08 02:35 | 20.01595 | -102.61498 | 17929 ft | 425 kts | 313° |
| 2026-05-08 02:36 | 20.03729 | -102.63676 | 17365 ft | 423 kts | 315° |
| 2026-05-08 02:36 | 20.05115 | -102.65132 | 17024 ft | 421 kts | 315° |
| 2026-05-08 02:36 | 20.07190 | -102.67314 | 16571 ft | 416 kts | 315° |
| 2026-05-08 02:36 | 20.09238 | -102.69467 | 16115 ft | 412 kts | 315° |
| 2026-05-08 02:37 | 20.11894 | -102.72262 | 15488 ft | 397 kts | 315° |
| 2026-05-08 02:37 | 20.13829 | -102.74297 | 15017 ft | 383 kts | 315° |
| 2026-05-08 02:37 | 20.15096 | -102.75630 | 14690 ft | 375 kts | 315° |
| 2026-05-08 02:37 | 20.16927 | -102.77557 | 14261 ft | 364 kts | 315° |
| 2026-05-08 02:38 | 20.18692 | -102.79416 | 13803 ft | 361 kts | 315° |
| 2026-05-08 02:38 | 20.20479 | -102.81299 | 13327 ft | 362 kts | 315° |
| 2026-05-08 02:38 | 20.22266 | -102.83184 | 12849 ft | 362 kts | 315° |
| 2026-05-08 02:38 | 20.24062 | -102.85078 | 12377 ft | 362 kts | 314° |
| 2026-05-08 02:39 | 20.25855 | -102.86968 | 11924 ft | 362 kts | 314° |
| 2026-05-08 02:39 | 20.27638 | -102.88849 | 11453 ft | 361 kts | 314° |
| 2026-05-08 02:39 | 20.29419 | -102.90727 | 11013 ft | 359 kts | 314° |
| 2026-05-08 02:39 | 20.31195 | -102.92602 | 10584 ft | 357 kts | 313° |
| 2026-05-08 02:40 | 20.32922 | -102.94427 | 10160 ft | 343 kts | 313° |
| 2026-05-08 02:40 | 20.34589 | -102.96186 | 9754 ft | 330 kts | 313° |
| 2026-05-08 02:40 | 20.36167 | -102.97854 | 9322 ft | 319 kts | 313° |
| 2026-05-08 02:40 | 20.37717 | -102.99494 | 8918 ft | 308 kts | 313° |
| 2026-05-08 02:41 | 20.39177 | -103.01056 | 8820 ft | 286 kts | 310° |
| 2026-05-08 02:41 | 20.40280 | -103.02716 | 8699 ft | 263 kts | 297° |
| 2026-05-08 02:41 | 20.41007 | -103.04378 | 8550 ft | 231 kts | 292° |
| 2026-05-08 02:41 | 20.41610 | -103.05860 | 8274 ft | 208 kts | 292° |
| 2026-05-08 02:42 | 20.42165 | -103.07201 | 8057 ft | 187 kts | 293° |
| 2026-05-08 02:42 | 20.42670 | -103.08413 | 8040 ft | 171 kts | 293° |
| 2026-05-08 02:42 | 20.43151 | -103.09561 | 7983 ft | 169 kts | 294° |
| 2026-05-08 02:42 | 20.43645 | -103.10745 | 8012 ft | 182 kts | 293° |
| 2026-05-08 02:43 | 20.44175 | -103.11998 | 7988 ft | 187 kts | 293° |
| 2026-05-08 02:43 | 20.44720 | -103.13255 | 8046 ft | 180 kts | 293° |
| 2026-05-08 02:43 | 20.45219 | -103.14438 | 7660 ft | 171 kts | 292° |
| 2026-05-08 02:43 | 20.45681 | -103.15586 | 7288 ft | 166 kts | 292° |
| 2026-05-08 02:44 | 20.46124 | -103.16709 | 7051 ft | 163 kts | 291° |
| 2026-05-08 02:44 | 20.46547 | -103.17803 | 6781 ft | 153 kts | 291° |
| 2026-05-08 02:44 | 20.46959 | -103.18817 | 6651 ft | 146 kts | 293° |
| 2026-05-08 02:44 | 20.47401 | -103.19778 | 6555 ft | 144 kts | 295° |
| 2026-05-08 02:45 | 20.47821 | -103.20747 | 6415 ft | 143 kts | 291° |
| 2026-05-08 02:45 | 20.48195 | -103.21722 | 6299 ft | 142 kts | 292° |
| 2026-05-08 02:45 | 20.48591 | -103.22690 | 6184 ft | 143 kts | 293° |
| 2026-05-08 02:45 | 20.49029 | -103.23661 | 6061 ft | 147 kts | 293° |
| 2026-05-08 02:46 | 20.49460 | -103.24642 | 6000 ft | 148 kts | 292° |
| 2026-05-08 02:46 | 20.49883 | -103.25666 | 5773 ft | 150 kts | 292° |
| 2026-05-08 02:46 | 20.50311 | -103.26662 | 5558 ft | 151 kts | 292° |
| 2026-05-08 02:46 | 20.50745 | -103.27695 | 5405 ft | 151 kts | 293° |
| 2026-05-08 02:47 | 20.51171 | -103.28702 | 5194 ft | 151 kts | 294° |
| 2026-05-08 02:47 | 20.51601 | -103.29732 | 5033 ft | 145 kts | 294° |
| 2026-05-08 02:47 | 20.51940 | -103.30537 | 5031 ft | 86 kts | 294° |
| 2026-05-08 02:47 | 20.52104 | -103.30929 | 5031 ft | 40 kts | 294° |
| 2026-05-08 02:48 | 20.52221 | -103.31204 | 5033 ft | 40 kts | 294° |
| 2026-05-08 02:48 | 20.52357 | -103.31462 | 5029 ft | 40 kts | 313° |
| 2026-05-08 02:48 | 20.52529 | -103.31596 | 5032 ft | 24 kts | 347° |
| 2026-05-08 02:48 | 20.52663 | -103.31546 | 5031 ft | 23 kts | 24° |
| 2026-05-08 02:49 | 20.52769 | -103.31465 | 5031 ft | 14 kts | 92° |
| 2026-05-08 02:49 | 20.52739 | -103.31390 | 5031 ft | 13 kts | 114° |
| 2026-05-08 02:49 | 20.52695 | -103.31285 | 5029 ft | 18 kts | 114° |
| 2026-05-08 02:49 | 20.52638 | -103.31148 | 5031 ft | 22 kts | 114° |
| 2026-05-08 02:50 | 20.52567 | -103.30980 | 5031 ft | 27 kts | 115° |
| 2026-05-08 02:50 | 20.52497 | -103.30813 | 5032 ft | 19 kts | 114° |
| 2026-05-08 02:50 | 20.52511 | -103.30700 | 5031 ft | 15 kts | 69° |
| 2026-05-08 02:50 | 20.52543 | -103.30588 | 5030 ft | 15 kts | 102° |
| 2026-05-08 02:51 | 20.52476 | -103.30547 | 5029 ft | 12 kts | 153° |
| 2026-05-08 02:51 | 20.52422 | -103.30465 | 5032 ft | 11 kts | 100° |
| 2026-05-08 02:51 | 20.52450 | -103.30401 | 5025 ft | 10 kts | 5° |
| 2026-05-08 02:51 | 20.52507 | -103.30391 | 5032 ft | 4 kts | 19° |
| 2026-05-08 02:52 | 20.52520 | -103.30386 | 5028 ft | 0 kts | 19° |